Salem, KY (42078)

3:41 PM CDT on July 05, 2015 (GMT -0500)
Marion-Critt Cnty AP, Marion, | | Change Station
CLOSE
Current Station
Airport
Location: Marion-Critt Cnty AP, Marion,,
Elevation: 650 ft
Nearby Weather Stations

Elev 650 ft 37.34 °N, 88.11 °W | Updated 26 minutes ago

Partly Cloudy
Partly Cloudy
83 °F
Feels Like 86 °F
N
8
Wind Variable Wind from WSW

Today
High -- | Low -- °F
--% Chance of Precip.
Yesterday
High -- | Low -- °F
Precip. -- in
5:38 AM 8:16 PM
Waning Gibbous, 82% visible
Pressure 30.07 in
Visibility 10.0 miles
Clouds Scattered Clouds 3600 ft
Scattered Clouds 4800 ft
Mostly Cloudy 6500 ft
Heat Index 86 °F
Dew Point 68 °F
Humidity 62%
Rainfall 0.00 in
Snow Depth Not available.
UV 5 out of 12
Pollen 3.70 out of 12
Air Quality Not available.
Flu Activity Not available.
METAR K5M9 052015Z AUTO 25007KT 10SM SCT036 SCT048 BKN065 28/20 A3007 RMK AO2 T02830203

More Conditions Fewer Conditions

Pressure 30.07 in
Visibility 10.0 miles
Clouds Scattered Clouds 3600 ft
Scattered Clouds 4800 ft
Mostly Cloudy 6500 ft
Heat Index 86 °F
Dew Point 68 °F
Humidity 62%
Rainfall 0.00 in
Snow Depth Not available.
UV 5 out of 12
Pollen 3.70 out of 12
Air Quality Not available.
Flu Activity Not available.
METAR K5M9 052015Z AUTO 25007KT 10SM SCT036 SCT048 BKN065 28/20 A3007 RMK AO2 T02830203

More Conditions Fewer Conditions

10-Day Weather Forecast

×

Almanac

Astronomy

Jul. 05, 2015 Rise Set
Actual Time
Civil Twilight
Nautical Twilight
Astronomical Twilight
Moon
Length of Visible Light
Length of Day
Tomorrow will be .
, % of the Moon is Illuminated

Today's Extremes

State Highs State Lows

Community

WunderPhotos

Upload Photos

1,835,379 photos uploaded!

WunderBlogs® & News

Nearby

Air Quality

  Air Quality AQ Index Pollutant
Not available.

Snow Depth

Station Depth Elevation

Earthquake Activity

City Distance Mag. Time & Date
Minimum magnitude displayed is 2.5.

Coastal Water Temperatures

Place Temperature

Stations

Nearby Weather Stations

Station Location Temp. Windchill Dew Point Humidity Wind Precip. Elev Updated Type